NCAR-RAP Real-Time Weather Data

Output produced by METARs form (12 August 2020  18:58 UTC)
found at http://weather.rap.ucar.edu/surface/
 
 
ROAH 121830Z 35002KT 9999 FEW020 28/26 Q1013 RMK 1CU020 A2993
 
RODN 121856Z AUTO 05004KT 10SM CLR 25/24 A2993 RMK AO2 SLP140 T02510240